createdAt,value
2023-12-04T00:01:08.855Z,-22992.44
2023-12-04T00:03:10.070Z,-22992.13
2023-12-04T00:05:11.596Z,-22989.38
2023-12-04T00:07:12.945Z,-22992.91
2023-12-04T00:09:14.014Z,-22993.41
2023-12-04T00:11:16.812Z,-22988.75
2023-12-04T00:19:31.509Z,-22987.47
2023-12-04T00:21:32.654Z,-22987.63
2023-12-04T00:23:34.121Z,-22987.47
2023-12-04T00:25:35.796Z,-22987.31
2023-12-04T00:27:37.035Z,-22989.88
2023-12-04T00:29:38.458Z,-22986.66
2023-12-04T00:31:39.822Z,-22982.81
2023-12-04T00:33:41.286Z,-22981.84
2023-12-04T00:35:43.705Z,-22988.75
2023-12-04T00:41:59.180Z,-22992.13
2023-12-04T00:44:00.512Z,-22991.78
2023-12-04T00:46:01.852Z,-22988.91
2023-12-04T00:48:03.631Z,-22989.06
2023-12-04T00:50:06.136Z,-22989.06
2023-12-04T00:52:07.580Z,-22988.91
2023-12-04T00:54:09.153Z,-22990.19
2023-12-04T00:56:11.079Z,-22988.59
2023-12-04T00:58:13.620Z,-22988.25
2023-12-04T01:06:29.593Z,-22991.78
2023-12-04T01:08:32.207Z,-22991.00
2023-12-04T01:10:33.537Z,-22991.78
2023-12-04T01:12:34.875Z,-22992.28
2023-12-04T01:14:38.602Z,-22995.47
2023-12-04T01:16:39.915Z,-22992.91
2023-12-04T01:18:41.025Z,-22991.00
2023-12-04T01:20:42.474Z,-22989.22
2023-12-04T01:22:44.676Z,-22992.59
2023-12-04T01:29:00.155Z,-22991.78
2023-12-04T01:31:01.736Z,-22991.78
2023-12-04T01:33:03.300Z,-22988.75
2023-12-04T01:35:05.651Z,-22988.75
2023-12-04T01:37:07.113Z,-22990.50
2023-12-04T01:39:08.677Z,-22991.16
2023-12-04T01:41:10.033Z,-22990.50
2023-12-04T01:43:11.464Z,-22992.13
2023-12-04T01:45:13.253Z,-22995.81
2023-12-04T01:53:48.090Z,-22988.25
2023-12-04T01:55:50.678Z,-22990.84
2023-12-04T01:57:53.765Z,-22993.09
2023-12-04T01:59:55.320Z,-22996.28
2023-12-04T02:01:56.963Z,-22999.81
2023-12-04T02:04:01.078Z,-22995.00
2023-12-04T02:06:03.931Z,-22997.56
2023-12-04T02:08:05.818Z,-22996.28
2023-12-04T02:10:09.336Z,-22998.84
2023-12-04T02:15:28.297Z,-22999.81
2023-12-04T02:17:29.961Z,-22996.44
2023-12-04T02:19:31.467Z,-22996.28
2023-12-04T02:21:32.981Z,-22999.50
2023-12-04T02:23:33.984Z,-23001.41
2023-12-04T02:25:37.861Z,-22999.81
2023-12-04T02:27:47.783Z,-22999.34
2023-12-04T02:29:53.270Z,-23001.91
2023-12-04T02:31:57.697Z,-22995.00
2023-12-04T02:40:14.479Z,-22991.47
2023-12-04T02:42:17.444Z,-22986.97
2023-12-04T02:44:18.755Z,-22986.97
2023-12-04T02:46:19.918Z,-22986.81
2023-12-04T02:48:21.270Z,-22990.84
2023-12-04T02:50:22.587Z,-22986.66
2023-12-04T02:52:23.810Z,-22985.69
2023-12-04T02:54:25.205Z,-22986.81
2023-12-04T03:03:36.465Z,-22991.94
2023-12-04T03:05:37.988Z,-22990.03
2023-12-04T03:07:39.314Z,-22990.84
2023-12-04T03:09:48.481Z,-22994.69
2023-12-04T03:11:51.218Z,-22989.72
2023-12-04T03:13:52.517Z,-22985.06
2023-12-04T03:15:53.625Z,-22994.19
2023-12-04T03:17:55.201Z,-22987.63
2023-12-04T03:19:57.253Z,-22987.63
2023-12-04T03:25:17.931Z,-22991.47
2023-12-04T03:27:19.330Z,-22990.50
2023-12-04T03:29:20.667Z,-22988.91
2023-12-04T03:31:22.194Z,-22990.84
2023-12-04T03:33:23.548Z,-22993.41
2023-12-04T03:35:24.979Z,-22991.47
2023-12-04T03:37:26.122Z,-22992.44
2023-12-04T03:39:27.464Z,-22989.88
2023-12-04T03:41:29.173Z,-22991.47
2023-12-04T03:45:44.194Z,-22994.38
2023-12-04T03:47:45.699Z,-22992.13
2023-12-04T03:49:47.041Z,-22995.00
2023-12-04T03:51:48.287Z,-22997.88
2023-12-04T03:53:49.622Z,-22999.00
2023-12-04T03:55:50.947Z,-22993.09
2023-12-04T03:57:53.060Z,-22988.91
2023-12-04T03:59:54.369Z,-22994.03
2023-12-04T04:01:56.165Z,-22989.38
2023-12-04T04:10:12.321Z,-22987.16
2023-12-04T04:12:13.898Z,-22990.84
2023-12-04T04:14:15.323Z,-22989.56
2023-12-04T04:16:16.892Z,-22991.47
2023-12-04T04:18:18.277Z,-22990.50
2023-12-04T04:20:19.458Z,-22991.78
2023-12-04T04:22:20.872Z,-22991.47
2023-12-04T04:24:22.168Z,-22990.19
2023-12-04T04:26:23.720Z,-22989.56
2023-12-04T04:34:34.744Z,-22994.03
2023-12-04T04:36:36.262Z,-22993.09
2023-12-04T04:38:40.153Z,-22987.63
2023-12-04T04:40:43.782Z,-22988.59
2023-12-04T04:42:44.848Z,-22990.50
2023-12-04T04:44:46.177Z,-22988.91
2023-12-04T04:46:47.440Z,-22989.56
2023-12-04T04:48:48.579Z,-22988.59
2023-12-04T04:50:50.863Z,-22989.38
2023-12-04T04:59:05.440Z,-22989.56
2023-12-04T05:01:07.613Z,-22995.31
2023-12-04T05:03:08.655Z,-22989.22
2023-12-04T05:05:10.064Z,-22986.81
2023-12-04T05:07:11.350Z,-22985.38
2023-12-04T05:09:12.778Z,-22985.22
2023-12-04T05:11:15.453Z,-22987.63
2023-12-04T05:13:16.536Z,-22986.66
2023-12-04T05:24:03.703Z,-22986.03
2023-12-04T05:26:06.250Z,-22992.28
2023-12-04T05:28:07.686Z,-22989.38
2023-12-04T05:30:09.636Z,-22991.63
2023-12-04T05:32:10.958Z,-22993.09
2023-12-04T05:34:12.202Z,-22991.78
2023-12-04T05:36:13.394Z,-22994.69
2023-12-04T05:38:14.745Z,-22992.75
2023-12-04T05:40:16.909Z,-22994.03
2023-12-04T05:44:32.017Z,-22993.09
2023-12-04T05:46:33.283Z,-22987.63
2023-12-04T05:48:34.488Z,-22991.47
2023-12-04T05:50:36.029Z,-22992.91
2023-12-04T05:52:38.692Z,-22991.31
2023-12-04T05:54:40.033Z,-22987.47
2023-12-04T05:56:41.141Z,-22991.47
2023-12-04T05:58:42.501Z,-22985.84
2023-12-04T06:00:44.510Z,-22986.97
2023-12-04T06:04:59.134Z,-22985.38
2023-12-04T06:07:00.453Z,-22984.09
2023-12-04T06:09:01.612Z,-22987.94
2023-12-04T06:11:03.453Z,-22986.81
2023-12-04T06:13:04.599Z,-22990.84
2023-12-04T06:15:07.195Z,-22983.63
2023-12-04T06:17:08.559Z,-22981.53
2023-12-04T06:19:09.961Z,-22980.88
2023-12-04T06:21:11.952Z,-22981.38
2023-12-04T06:30:44.574Z,-22981.69
2023-12-04T06:32:46.727Z,-22982.19
2023-12-04T06:34:48.802Z,-22984.09
2023-12-04T06:36:50.825Z,-22985.53
2023-12-04T06:38:53.583Z,-22986.34
2023-12-04T06:40:55.393Z,-22990.19
2023-12-04T06:42:57.344Z,-22984.91
2023-12-04T06:44:59.110Z,-22983.44
2023-12-04T06:47:02.285Z,-22986.97
2023-12-04T06:51:54.835Z,-22985.69
2023-12-04T06:53:56.122Z,-22989.22
2023-12-04T06:55:57.260Z,-22987.63
2023-12-04T06:57:58.922Z,-22985.84
2023-12-04T07:00:00.364Z,-22985.06
2023-12-04T07:02:02.087Z,-22982.81
2023-12-04T07:04:10.080Z,-22983.78
2023-12-04T07:06:11.889Z,-22987.16
2023-12-04T07:08:13.919Z,-22984.09
2023-12-04T07:12:28.882Z,-22984.09
2023-12-04T07:14:30.155Z,-22987.94
2023-12-04T07:16:31.252Z,-22991.94
2023-12-04T07:18:32.716Z,-22994.03
2023-12-04T07:20:34.130Z,-22989.56
2023-12-04T07:22:38.433Z,-22985.69
2023-12-04T07:24:41.101Z,-22992.75
2023-12-04T07:26:42.156Z,-22994.69
2023-12-04T07:28:47.132Z,-22990.84
2023-12-04T07:37:01.644Z,-22993.22
2023-12-04T07:39:06.539Z,-22989.06
2023-12-04T07:41:07.912Z,-22987.31
2023-12-04T07:43:09.298Z,-22993.41
2023-12-04T07:45:11.448Z,-22990.03
2023-12-04T07:47:13.655Z,-22998.22
2023-12-04T07:49:15.122Z,-22997.41
2023-12-04T07:51:16.574Z,-23002.53
2023-12-04T07:53:19.040Z,-22992.75
2023-12-04T08:00:45.823Z,-23004.94
2023-12-04T08:02:47.238Z,-23009.44
2023-12-04T08:04:48.611Z,-23010.56
2023-12-04T08:06:50.811Z,-23015.38
2023-12-04T08:08:53.314Z,-23014.41
2023-12-04T08:10:54.579Z,-23017.44
2023-12-04T08:12:55.727Z,-23004.63
2023-12-04T08:14:57.182Z,-23002.38
2023-12-04T08:16:59.247Z,-23007.66
2023-12-04T08:22:27.134Z,-23010.06
2023-12-04T08:24:29.820Z,-23006.72
2023-12-04T08:26:32.044Z,-23003.50
2023-12-04T08:28:34.293Z,-23009.91
2023-12-04T08:30:35.705Z,-23012.66
2023-12-04T08:32:37.149Z,-23015.84
2023-12-04T08:34:38.580Z,-23015.22
2023-12-04T08:36:45.434Z,-23015.38
2023-12-04T08:38:48.882Z,-23013.94
2023-12-04T08:46:21.437Z,-23011.84
2023-12-04T08:48:22.928Z,-23024.66
2023-12-04T08:50:25.713Z,-23024.03
2023-12-04T08:52:27.217Z,-23033.47
2023-12-04T08:54:28.350Z,-23024.81
2023-12-04T08:56:31.544Z,-23014.25
2023-12-04T08:58:33.056Z,-23016.81
2023-12-04T09:00:36.361Z,-23018.41
2023-12-04T09:02:46.113Z,-23024.66
2023-12-04T09:11:18.348Z,-23018.41
2023-12-04T09:13:24.758Z,-23019.06
2023-12-04T09:15:26.131Z,-23019.06
2023-12-04T09:17:33.112Z,-23021.47
2023-12-04T09:19:38.136Z,-23021.78
2023-12-04T09:21:39.741Z,-23025.31
2023-12-04T09:23:41.171Z,-23026.09
2023-12-04T09:25:42.617Z,-23034.44
2023-12-04T09:27:44.647Z,-23037.97
2023-12-04T09:37:17.215Z,-23042.13
2023-12-04T09:39:18.916Z,-23043.91
2023-12-04T09:41:21.826Z,-23045.00
2023-12-04T09:43:23.392Z,-23046.28
2023-12-04T09:45:25.329Z,-23051.44
2023-12-04T09:47:27.432Z,-23046.28
2023-12-04T09:49:30.115Z,-23047.41
2023-12-04T09:51:32.003Z,-23046.94
2023-12-04T09:53:35.616Z,-23048.22
2023-12-04T09:58:15.577Z,-23050.47
2023-12-04T10:00:18.058Z,-23051.44
2023-12-04T10:02:20.295Z,-23056.06
2023-12-04T10:04:23.076Z,-23061.53
2023-12-04T10:06:28.187Z,-23059.28
2023-12-04T10:08:29.946Z,-23056.72
2023-12-04T10:10:31.404Z,-23058.63
2023-12-04T10:12:34.574Z,-23055.59
2023-12-04T10:14:37.109Z,-23057.84
2023-12-04T10:20:54.189Z,-23068.09
2023-12-04T10:22:57.475Z,-23068.72
2023-12-04T10:24:58.648Z,-23069.69
2023-12-04T10:27:00.511Z,-23069.38
2023-12-04T10:29:03.654Z,-23071.75
2023-12-04T10:31:07.333Z,-23073.03
2023-12-04T10:33:09.518Z,-23071.59
2023-12-04T10:35:13.933Z,-23076.72
2023-12-04T10:37:15.962Z,-23082.66
2023-12-04T10:41:45.826Z,-23082.19
2023-12-04T10:43:57.586Z,-23091.63
2023-12-04T10:46:05.571Z,-23091.31
2023-12-04T10:48:07.440Z,-23092.41
2023-12-04T10:50:09.744Z,-23092.25
2023-12-04T10:52:11.063Z,-23098.66
2023-12-04T10:54:13.222Z,-23104.25
2023-12-04T10:56:20.397Z,-23107.63
2023-12-04T10:58:27.180Z,-23119.63
2023-12-04T11:02:47.661Z,-23123.13
2023-12-04T11:04:51.535Z,-23123.13
2023-12-04T11:06:55.048Z,-23119.94
2023-12-04T11:08:59.164Z,-23122.97
2023-12-04T11:11:03.913Z,-23119.13
2023-12-04T11:13:11.458Z,-23121.53
2023-12-04T11:15:17.203Z,-23123.78
2023-12-04T11:17:20.882Z,-23126.66
2023-12-04T11:19:29.972Z,-23116.75
2023-12-04T11:27:45.761Z,-23117.22
2023-12-04T11:29:48.513Z,-23116.41
2023-12-04T11:31:49.887Z,-23118.66
2023-12-04T11:33:51.437Z,-23113.69
2023-12-04T11:35:53.139Z,-23110.97
2023-12-04T11:37:54.496Z,-23112.25
2023-12-04T11:39:56.927Z,-23109.38
2023-12-04T11:42:00.578Z,-23113.22
2023-12-04T11:44:03.234Z,-23114.19
2023-12-04T11:53:49.181Z,-23129.84
2023-12-04T11:55:50.534Z,-23132.41
2023-12-04T11:57:54.812Z,-23129.53
2023-12-04T12:00:10.208Z,-23132.41
2023-12-04T12:02:12.089Z,-23135.47
2023-12-04T12:04:15.446Z,-23134.81
2023-12-04T12:06:18.783Z,-23132.41
2023-12-04T12:08:20.511Z,-23128.56
2023-12-04T12:10:22.643Z,-23128.56
2023-12-04T12:15:47.848Z,-23126.03
2023-12-04T12:17:50.398Z,-23130.19
2023-12-04T12:19:51.708Z,-23134.03
2023-12-04T12:21:53.186Z,-23133.38
2023-12-04T12:23:54.937Z,-23128.09
2023-12-04T12:25:57.220Z,-23128.75
2023-12-04T12:28:03.312Z,-23133.84
2023-12-04T12:30:06.508Z,-23132.91
2023-12-04T12:32:08.668Z,-23133.06
2023-12-04T12:38:23.994Z,-23131.47
2023-12-04T12:40:28.648Z,-23134.50
2023-12-04T12:42:29.888Z,-23126.34
2023-12-04T12:44:39.941Z,-23126.19
2023-12-04T12:46:41.421Z,-23123.13
2023-12-04T12:48:43.977Z,-23114.19
2023-12-04T12:50:46.475Z,-23115.31
2023-12-04T12:52:49.918Z,-23110.66
2023-12-04T12:54:53.064Z,-23114.50
2023-12-04T13:03:14.872Z,-23122.34
2023-12-04T13:05:18.239Z,-23128.25
2023-12-04T13:07:19.738Z,-23130.50
2023-12-04T13:09:22.189Z,-23125.69
2023-12-04T13:11:23.703Z,-23134.03
2023-12-04T13:13:25.641Z,-23128.25
2023-12-04T13:15:27.219Z,-23122.19
2023-12-04T13:17:28.801Z,-23126.34
2023-12-04T13:19:31.954Z,-23123.47
2023-12-04T13:29:03.776Z,-23118.66
2023-12-04T13:31:05.569Z,-23113.22
2023-12-04T13:33:07.104Z,-23124.25
2023-12-04T13:35:09.678Z,-23126.50
2023-12-04T13:37:11.190Z,-23117.22
2023-12-04T13:39:17.350Z,-23117.53
2023-12-04T13:41:35.977Z,-23112.56
2023-12-04T13:43:52.468Z,-23116.41
2023-12-04T13:45:55.290Z,-23120.09
2023-12-04T13:54:20.490Z,-23113.22
2023-12-04T13:56:25.809Z,-23112.09
2023-12-04T13:58:38.590Z,-23116.09
2023-12-04T14:00:41.917Z,-23119.63
2023-12-04T14:02:43.274Z,-23108.41
2023-12-04T14:04:44.906Z,-23107.63
2023-12-04T14:06:46.709Z,-23104.41
2023-12-04T14:08:48.414Z,-23106.19
2023-12-04T14:16:20.063Z,-23103.63
2023-12-04T14:18:21.645Z,-23106.19
2023-12-04T14:20:24.134Z,-23109.38
2023-12-04T14:22:26.130Z,-23107.31
2023-12-04T14:24:30.204Z,-23112.56
2023-12-04T14:26:31.484Z,-23113.53
2023-12-04T14:28:37.040Z,-23111.94
2023-12-04T14:30:44.394Z,-23111.78
2023-12-04T14:32:48.334Z,-23109.84
2023-12-04T14:41:04.875Z,-23107.78
2023-12-04T14:43:09.900Z,-23107.13
2023-12-04T14:45:11.052Z,-23104.75
2023-12-04T14:47:12.531Z,-23111.47
2023-12-04T14:49:13.950Z,-23111.94
2023-12-04T14:51:15.956Z,-23112.91
2023-12-04T14:53:28.632Z,-23107.94
2023-12-04T14:55:48.361Z,-23111.78
2023-12-04T14:58:16.092Z,-23107.78
2023-12-04T15:05:03.974Z,-23115.47
2023-12-04T15:07:40.058Z,-23110.97
2023-12-04T15:09:59.103Z,-23112.25
2023-12-04T15:12:21.994Z,-23105.88
2023-12-04T15:14:33.793Z,-23110.97
2023-12-04T15:16:43.147Z,-23112.75
2023-12-04T15:19:10.642Z,-23110.03
2023-12-04T15:25:18.817Z,-23112.75
2023-12-04T15:27:20.792Z,-23116.41
2023-12-04T15:29:23.485Z,-23113.06
2023-12-04T15:31:25.014Z,-23114.81
2023-12-04T15:33:28.298Z,-23115.78
2023-12-04T15:35:30.244Z,-23114.81
2023-12-04T15:37:32.246Z,-23114.81
2023-12-04T15:43:59.151Z,-23111.47
2023-12-04T15:46:00.856Z,-23113.22
2023-12-04T15:48:02.933Z,-23111.13
2023-12-04T15:50:07.814Z,-23109.06
2023-12-04T15:52:09.816Z,-23111.94
2023-12-04T15:54:11.440Z,-23113.88
2023-12-04T15:56:12.973Z,-23111.63
2023-12-04T15:58:14.379Z,-23114.03
2023-12-04T16:04:29.499Z,-23115.47
2023-12-04T16:06:31.000Z,-23114.50
2023-12-04T16:08:34.471Z,-23114.50
2023-12-04T16:10:36.711Z,-23112.25
2023-12-04T16:12:38.377Z,-23117.06
2023-12-04T16:14:41.727Z,-23115.63
2023-12-04T16:16:43.241Z,-23122.19
2023-12-04T16:18:44.628Z,-23117.69
2023-12-04T16:20:47.272Z,-23115.63
2023-12-04T16:25:40.648Z,-23119.94
2023-12-04T16:27:42.052Z,-23121.22
2023-12-04T16:29:43.413Z,-23122.50
2023-12-04T16:31:44.900Z,-23122.34
2023-12-04T16:33:46.274Z,-23119.47
2023-12-04T16:35:47.482Z,-23118.97
2023-12-04T16:37:48.839Z,-23122.34
2023-12-04T16:39:50.252Z,-23123.78
2023-12-04T16:41:52.241Z,-23124.25
2023-12-04T16:49:23.764Z,-23125.38
2023-12-04T16:51:25.334Z,-23126.97
2023-12-04T16:53:26.467Z,-23130.34
2023-12-04T16:55:27.699Z,-23129.53
2023-12-04T16:57:31.646Z,-23131.31
2023-12-04T16:59:33.649Z,-23129.53
2023-12-04T17:01:35.510Z,-23131.94
2023-12-04T17:03:37.065Z,-23132.56
2023-12-04T17:05:39.492Z,-23127.94
2023-12-04T17:11:54.373Z,-23126.34
2023-12-04T17:13:56.183Z,-23124.09
2023-12-04T17:15:57.469Z,-23124.75
2023-12-04T17:17:58.931Z,-23122.50
2023-12-04T17:20:00.058Z,-23121.84
2023-12-04T17:22:01.285Z,-23122.81
2023-12-04T17:24:02.939Z,-23124.75
2023-12-04T17:26:05.197Z,-23124.75
2023-12-04T17:28:09.760Z,-23123.13
2023-12-04T17:34:25.423Z,-23122.66
2023-12-04T17:36:28.106Z,-23124.91
2023-12-04T17:38:29.392Z,-23127.63
2023-12-04T17:40:31.211Z,-23131.78
2023-12-04T17:42:33.028Z,-23124.75
2023-12-04T17:44:34.407Z,-23126.97
2023-12-04T17:46:35.740Z,-23128.25
2023-12-04T17:48:38.341Z,-23126.81
2023-12-04T17:50:40.578Z,-23125.69
2023-12-04T17:56:56.165Z,-23123.47
2023-12-04T17:58:58.358Z,-23122.81
2023-12-04T18:01:00.008Z,-23118.97
2023-12-04T18:03:01.677Z,-23119.31
2023-12-04T18:05:03.436Z,-23119.63
2023-12-04T18:07:05.426Z,-23118.03
2023-12-04T18:09:08.302Z,-23119.31
2023-12-04T18:11:09.671Z,-23120.91
2023-12-04T18:13:12.098Z,-23121.38
2023-12-04T18:15:15.580Z,-23122.50
2023-12-04T18:20:36.132Z,-23120.91
2023-12-04T18:22:37.794Z,-23122.66
2023-12-04T18:24:39.218Z,-23123.63
2023-12-04T18:26:42.891Z,-23122.50
2023-12-04T18:28:45.275Z,-23125.38
2023-12-04T18:30:47.410Z,-23124.75
2023-12-04T18:32:50.461Z,-23126.03
2023-12-04T18:34:54.844Z,-23126.19
2023-12-04T18:40:18.266Z,-23130.34
2023-12-04T18:42:20.168Z,-23134.81
2023-12-04T18:44:22.245Z,-23135.94
2023-12-04T18:46:25.774Z,-23137.69
2023-12-04T18:48:32.115Z,-23141.69
2023-12-04T18:50:34.357Z,-23141.84
2023-12-04T18:52:36.896Z,-23146.97
2023-12-04T18:54:38.640Z,-23147.59
2023-12-04T18:56:41.171Z,-23150.16
2023-12-04T19:02:57.633Z,-23152.25
2023-12-04T19:04:58.907Z,-23157.69
2023-12-04T19:07:00.477Z,-23160.22
2023-12-04T19:09:02.024Z,-23160.56
2023-12-04T19:11:03.986Z,-23161.50
2023-12-04T19:13:05.381Z,-23159.28
2023-12-04T19:15:10.168Z,-23161.66
2023-12-04T19:17:11.570Z,-23162.63
2023-12-04T19:19:13.876Z,-23161.50
2023-12-04T19:27:29.156Z,-23166.00
2023-12-04T19:29:30.940Z,-23168.22
2023-12-04T19:31:32.085Z,-23162.47
2023-12-04T19:33:33.678Z,-23165.34
2023-12-04T19:35:35.443Z,-23161.19
2023-12-04T19:37:36.477Z,-23162.78
2023-12-04T19:39:38.154Z,-23159.59
2023-12-04T19:41:39.577Z,-23160.88
2023-12-04T19:43:41.510Z,-23162.00
2023-12-04T19:51:52.109Z,-23168.38
2023-12-04T19:53:53.495Z,-23168.22
2023-12-04T19:55:54.541Z,-23167.25
2023-12-04T19:57:55.693Z,-23167.59
2023-12-04T19:59:56.830Z,-23167.91
2023-12-04T20:01:59.045Z,-23169.97
2023-12-04T20:04:00.652Z,-23168.06
2023-12-04T20:06:03.124Z,-23167.25
2023-12-04T20:08:06.207Z,-23167.25
2023-12-04T20:12:21.216Z,-23168.88
2023-12-04T20:14:23.100Z,-23172.69
2023-12-04T20:16:24.502Z,-23172.22
2023-12-04T20:18:25.710Z,-23172.06
2023-12-04T20:20:27.101Z,-23171.25
2023-12-04T20:22:28.524Z,-23170.31
2023-12-04T20:24:30.344Z,-23173.34
2023-12-04T20:26:31.739Z,-23172.84
2023-12-04T20:28:33.542Z,-23175.25
2023-12-04T20:36:44.042Z,-23176.69
2023-12-04T20:38:45.536Z,-23178.94
2023-12-04T20:40:49.011Z,-23179.41
2023-12-04T20:42:50.453Z,-23176.53
2023-12-04T20:44:51.793Z,-23175.56
2023-12-04T20:46:52.810Z,-23177.16
2023-12-04T20:48:55.418Z,-23176.22
2023-12-04T20:50:56.811Z,-23177.50
2023-12-04T20:52:59.792Z,-23178.13
2023-12-04T21:01:18.272Z,-23175.88
2023-12-04T21:03:19.964Z,-23173.03
2023-12-04T21:05:22.111Z,-23175.09
2023-12-04T21:07:26.451Z,-23178.28
2023-12-04T21:09:28.645Z,-23182.28
2023-12-04T21:11:31.052Z,-23179.72
2023-12-04T21:13:32.525Z,-23179.72
2023-12-04T21:15:34.889Z,-23179.41
2023-12-04T21:17:38.646Z,-23179.56
2023-12-04T21:25:49.049Z,-23185.16
2023-12-04T21:27:50.472Z,-23189.31
2023-12-04T21:29:51.842Z,-23187.72
2023-12-04T21:31:53.235Z,-23195.06
2023-12-04T21:33:56.770Z,-23195.84
2023-12-04T21:35:58.730Z,-23195.22
2023-12-04T21:38:00.325Z,-23194.75
2023-12-04T21:40:01.676Z,-23192.19
2023-12-04T21:42:04.901Z,-23193.63
2023-12-04T21:48:20.227Z,-23189.31
2023-12-04T21:50:21.678Z,-23191.06
2023-12-04T21:52:22.787Z,-23189.94
2023-12-04T21:54:25.665Z,-23186.91
2023-12-04T21:56:27.145Z,-23189.00
2023-12-04T21:58:30.842Z,-23189.94
2023-12-04T22:00:32.255Z,-23188.03
2023-12-04T22:02:33.784Z,-23192.50
2023-12-04T22:04:36.197Z,-23191.53
2023-12-04T22:10:50.983Z,-23189.16
2023-12-04T22:12:52.397Z,-23190.91
2023-12-04T22:14:53.713Z,-23189.63
2023-12-04T22:16:55.154Z,-23188.34
2023-12-04T22:18:56.550Z,-23186.44
2023-12-04T22:20:58.331Z,-23189.94
2023-12-04T22:22:59.829Z,-23190.44
2023-12-04T22:25:01.455Z,-23190.91
2023-12-04T22:27:04.515Z,-23189.94
2023-12-04T22:33:18.690Z,-23190.59
2023-12-04T22:35:20.131Z,-23191.53
2023-12-04T22:37:21.628Z,-23191.22
2023-12-04T22:39:23.785Z,-23193.63
2023-12-04T22:41:25.323Z,-23193.94
2023-12-04T22:43:26.718Z,-23195.22
2023-12-04T22:45:29.494Z,-23195.22
2023-12-04T22:47:30.960Z,-23194.75
2023-12-04T22:49:33.190Z,-23194.59
2023-12-04T22:54:45.777Z,-23196.97
2023-12-04T22:56:47.178Z,-23194.59
2023-12-04T22:58:48.276Z,-23196.34
2023-12-04T23:00:49.517Z,-23195.69
2023-12-04T23:02:50.718Z,-23195.53
2023-12-04T23:04:52.272Z,-23194.09
2023-12-04T23:06:54.265Z,-23194.91
2023-12-04T23:08:56.506Z,-23197.78
2023-12-04T23:10:58.616Z,-23197.28
2023-12-04T23:18:30.492Z,-23193.94
2023-12-04T23:20:31.928Z,-23193.78
2023-12-04T23:22:33.300Z,-23193.63
2023-12-04T23:24:34.838Z,-23188.84
2023-12-04T23:26:38.765Z,-23188.66
2023-12-04T23:28:40.026Z,-23188.34
2023-12-04T23:30:42.763Z,-23189.31
2023-12-04T23:32:44.293Z,-23189.94
2023-12-04T23:34:46.378Z,-23192.50
2023-12-04T23:36:48.573Z,-23194.25
2023-12-04T23:41:57.595Z,-23196.66
2023-12-04T23:43:58.951Z,-23200.16
2023-12-04T23:46:00.420Z,-23202.72
2023-12-04T23:48:01.952Z,-23202.56
2023-12-04T23:50:04.449Z,-23203.38
2023-12-04T23:52:06.202Z,-23203.03
2023-12-04T23:54:07.541Z,-23206.56
2023-12-04T23:56:10.195Z,-23204.47
